DAL3022 KATL-KHSV
Flight info
| Callsign | DAL3022 |
|---|---|
| Flight time | 0h 32m |
| Altitude | 16000 |
| Route | CUTTN2 HANKO WAMPM |
| Aircraft | A319/M-SDE3FGHIRWY/LB1 |
Departure
| Time | 2026-05-05 17:14 |
|---|---|
| Airport | Hartsfield Jackson Atlanta International Airport (KATL) |
Arrival
| Time | 2026-05-05 17:46 |
|---|---|
| Airport | Huntsville International Airport (KHSV) |
| Time | Latitude | Longitude | Altitude | Speed | Heading |
|---|---|---|---|---|---|
| 2026-05-05 16:56 | 33.64266 | -84.43877 | 1036 ft | 0 kts | 270° |
| 2026-05-05 17:05 | 33.64266 | -84.43858 | 1035 ft | 4 kts | 269° |
| 2026-05-05 17:05 | 33.64266 | -84.43827 | 1035 ft | 4 kts | 280° |
| 2026-05-05 17:05 | 33.64257 | -84.43798 | 1035 ft | 4 kts | 317° |
| 2026-05-05 17:06 | 33.64242 | -84.43789 | 1035 ft | 0 kts | 0° |
| 2026-05-05 17:08 | 33.64247 | -84.43789 | 1035 ft | 2 kts | 0° |
| 2026-05-05 17:08 | 33.64279 | -84.43788 | 1035 ft | 7 kts | 360° |
| 2026-05-05 17:09 | 33.64343 | -84.43789 | 1035 ft | 11 kts | 359° |
| 2026-05-05 17:09 | 33.64431 | -84.43765 | 1035 ft | 15 kts | 40° |
| 2026-05-05 17:09 | 33.64460 | -84.43633 | 1036 ft | 19 kts | 93° |
| 2026-05-05 17:09 | 33.64459 | -84.43461 | 1036 ft | 23 kts | 90° |
| 2026-05-05 17:10 | 33.64460 | -84.43262 | 1036 ft | 24 kts | 89° |
| 2026-05-05 17:10 | 33.64461 | -84.43057 | 1036 ft | 25 kts | 89° |
| 2026-05-05 17:10 | 33.64459 | -84.42865 | 1035 ft | 22 kts | 90° |
| 2026-05-05 17:10 | 33.64469 | -84.42676 | 1035 ft | 23 kts | 89° |
| 2026-05-05 17:11 | 33.64469 | -84.42480 | 1035 ft | 24 kts | 90° |
| 2026-05-05 17:11 | 33.64474 | -84.42279 | 1035 ft | 24 kts | 76° |
| 2026-05-05 17:11 | 33.64541 | -84.42104 | 1035 ft | 22 kts | 77° |
| 2026-05-05 17:11 | 33.64543 | -84.41920 | 1035 ft | 22 kts | 89° |
| 2026-05-05 17:12 | 33.64543 | -84.41731 | 1036 ft | 23 kts | 90° |
| 2026-05-05 17:12 | 33.64542 | -84.41539 | 1036 ft | 23 kts | 90° |
| 2026-05-05 17:12 | 33.64541 | -84.41341 | 1036 ft | 24 kts | 90° |
| 2026-05-05 17:12 | 33.64543 | -84.41139 | 1036 ft | 25 kts | 90° |
| 2026-05-05 17:13 | 33.64543 | -84.40931 | 1035 ft | 24 kts | 89° |
| 2026-05-05 17:13 | 33.64591 | -84.40810 | 1035 ft | 17 kts | 2° |
| 2026-05-05 17:13 | 33.64674 | -84.40831 | 1035 ft | 10 kts | 295° |
| 2026-05-05 17:13 | 33.64680 | -84.40921 | 1036 ft | 16 kts | 270° |
| 2026-05-05 17:14 | 33.64680 | -84.41345 | 1038 ft | 86 kts | 269° |
| 2026-05-05 17:14 | 33.64675 | -84.42315 | 1034 ft | 144 kts | 269° |
| 2026-05-05 17:14 | 33.64657 | -84.43622 | 1406 ft | 156 kts | 262° |
| 2026-05-05 17:14 | 33.64646 | -84.44908 | 2106 ft | 153 kts | 262° |
| 2026-05-05 17:15 | 33.64761 | -84.46173 | 2784 ft | 152 kts | 278° |
| 2026-05-05 17:15 | 33.65017 | -84.47463 | 3056 ft | 170 kts | 276° |
| 2026-05-05 17:15 | 33.65287 | -84.48977 | 3222 ft | 204 kts | 277° |
| 2026-05-05 17:15 | 33.65596 | -84.50736 | 3603 ft | 225 kts | 277° |
| 2026-05-05 17:16 | 33.65944 | -84.52666 | 4138 ft | 243 kts | 278° |
| 2026-05-05 17:16 | 33.66313 | -84.54667 | 4889 ft | 249 kts | 279° |
| 2026-05-05 17:16 | 33.66696 | -84.56737 | 5552 ft | 262 kts | 278° |
| 2026-05-05 17:16 | 33.67093 | -84.58911 | 6367 ft | 269 kts | 278° |
| 2026-05-05 17:17 | 33.67479 | -84.61096 | 7225 ft | 272 kts | 278° |
| 2026-05-05 17:17 | 33.67861 | -84.63325 | 8153 ft | 273 kts | 278° |
| 2026-05-05 17:17 | 33.68242 | -84.65569 | 9049 ft | 276 kts | 278° |
| 2026-05-05 17:17 | 33.68625 | -84.67838 | 9933 ft | 278 kts | 278° |
| 2026-05-05 17:18 | 33.69018 | -84.70167 | 10427 ft | 295 kts | 279° |
| 2026-05-05 17:18 | 33.69439 | -84.72680 | 10671 ft | 319 kts | 279° |
| 2026-05-05 17:18 | 33.69890 | -84.75358 | 11083 ft | 333 kts | 280° |
| 2026-05-05 17:18 | 33.70551 | -84.78051 | 11774 ft | 339 kts | 286° |
| 2026-05-05 17:19 | 33.71283 | -84.80749 | 12517 ft | 342 kts | 287° |
| 2026-05-05 17:19 | 33.72022 | -84.83479 | 13276 ft | 345 kts | 287° |
| 2026-05-05 17:19 | 33.72765 | -84.86223 | 14022 ft | 347 kts | 287° |
| 2026-05-05 17:19 | 33.73514 | -84.88994 | 14677 ft | 350 kts | 287° |
| 2026-05-05 17:20 | 33.74269 | -84.91788 | 15369 ft | 352 kts | 287° |
| 2026-05-05 17:20 | 33.75022 | -84.94592 | 15821 ft | 353 kts | 287° |
| 2026-05-05 17:20 | 33.75772 | -84.97392 | 15958 ft | 352 kts | 287° |
| 2026-05-05 17:20 | 33.76543 | -85.00272 | 15995 ft | 370 kts | 287° |
| 2026-05-05 17:21 | 33.77338 | -85.03236 | 15992 ft | 375 kts | 287° |
| 2026-05-05 17:21 | 33.78141 | -85.06225 | 15989 ft | 376 kts | 287° |
| 2026-05-05 17:21 | 33.78931 | -85.09170 | 15990 ft | 375 kts | 287° |
| 2026-05-05 17:22 | 33.80522 | -85.15141 | 15988 ft | 375 kts | 287° |
| 2026-05-05 17:22 | 33.81316 | -85.18125 | 15977 ft | 374 kts | 287° |
| 2026-05-05 17:22 | 33.81886 | -85.21173 | 15974 ft | 374 kts | 277° |
| 2026-05-05 17:22 | 33.82064 | -85.24300 | 15971 ft | 374 kts | 273° |
| 2026-05-05 17:23 | 33.82200 | -85.27425 | 15966 ft | 374 kts | 273° |
| 2026-05-05 17:23 | 33.82338 | -85.30558 | 15967 ft | 374 kts | 273° |
| 2026-05-05 17:23 | 33.82476 | -85.33680 | 15961 ft | 374 kts | 273° |
| 2026-05-05 17:23 | 33.82616 | -85.36810 | 15962 ft | 374 kts | 273° |
| 2026-05-05 17:24 | 33.82756 | -85.39939 | 15962 ft | 374 kts | 273° |
| 2026-05-05 17:24 | 33.82896 | -85.43065 | 15953 ft | 375 kts | 273° |
| 2026-05-05 17:24 | 33.83035 | -85.46195 | 15960 ft | 374 kts | 273° |
| 2026-05-05 17:24 | 33.83172 | -85.49320 | 15964 ft | 374 kts | 273° |
| 2026-05-05 17:25 | 33.83305 | -85.52443 | 15967 ft | 374 kts | 273° |
| 2026-05-05 17:25 | 33.83392 | -85.54510 | 15969 ft | 374 kts | 273° |
| 2026-05-05 17:25 | 33.83569 | -85.58646 | 15968 ft | 374 kts | 273° |
| 2026-05-05 17:25 | 33.83706 | -85.61768 | 15968 ft | 373 kts | 274° |
| 2026-05-05 17:26 | 33.84114 | -85.64845 | 15967 ft | 373 kts | 284° |
| 2026-05-05 17:26 | 33.85015 | -85.67778 | 15967 ft | 374 kts | 294° |
| 2026-05-05 17:26 | 33.86166 | -85.70584 | 15966 ft | 374 kts | 295° |
| 2026-05-05 17:26 | 33.87314 | -85.73402 | 15961 ft | 374 kts | 294° |
| 2026-05-05 17:27 | 33.88451 | -85.76215 | 15975 ft | 374 kts | 294° |
| 2026-05-05 17:27 | 33.89589 | -85.79037 | 15970 ft | 374 kts | 294° |
| 2026-05-05 17:27 | 33.90723 | -85.81855 | 15968 ft | 374 kts | 294° |
| 2026-05-05 17:27 | 33.91855 | -85.84677 | 15967 ft | 374 kts | 294° |
| 2026-05-05 17:28 | 33.92986 | -85.87493 | 15965 ft | 374 kts | 294° |
| 2026-05-05 17:28 | 33.94121 | -85.90313 | 15955 ft | 374 kts | 294° |
| 2026-05-05 17:28 | 33.95256 | -85.93131 | 15955 ft | 374 kts | 294° |
| 2026-05-05 17:28 | 33.96391 | -85.95955 | 15953 ft | 374 kts | 294° |
| 2026-05-05 17:29 | 33.97523 | -85.98769 | 15952 ft | 374 kts | 294° |
| 2026-05-05 17:29 | 33.98643 | -86.01554 | 15952 ft | 373 kts | 294° |
| 2026-05-05 17:29 | 33.99773 | -86.04368 | 15951 ft | 373 kts | 294° |
| 2026-05-05 17:29 | 34.00899 | -86.07184 | 15950 ft | 373 kts | 294° |
| 2026-05-05 17:30 | 34.02025 | -86.10005 | 15950 ft | 373 kts | 294° |
| 2026-05-05 17:30 | 34.03152 | -86.12827 | 15950 ft | 373 kts | 294° |
| 2026-05-05 17:30 | 34.04277 | -86.15647 | 15951 ft | 373 kts | 294° |
| 2026-05-05 17:30 | 34.05039 | -86.17556 | 15954 ft | 373 kts | 294° |
| 2026-05-05 17:31 | 34.06163 | -86.20376 | 15946 ft | 373 kts | 294° |
| 2026-05-05 17:31 | 34.07288 | -86.23195 | 15948 ft | 373 kts | 294° |
| 2026-05-05 17:31 | 34.08412 | -86.26014 | 15972 ft | 373 kts | 294° |
| 2026-05-05 17:31 | 34.09522 | -86.28801 | 15973 ft | 372 kts | 294° |
| 2026-05-05 17:32 | 34.10642 | -86.31619 | 15975 ft | 372 kts | 294° |
| 2026-05-05 17:32 | 34.11761 | -86.34437 | 15975 ft | 372 kts | 294° |
| 2026-05-05 17:32 | 34.12883 | -86.37258 | 15975 ft | 372 kts | 294° |
| 2026-05-05 17:32 | 34.14001 | -86.40073 | 15974 ft | 372 kts | 294° |
| 2026-05-05 17:33 | 34.15119 | -86.42891 | 15972 ft | 372 kts | 294° |
| 2026-05-05 17:33 | 34.16236 | -86.45711 | 15971 ft | 372 kts | 293° |
| 2026-05-05 17:33 | 34.17348 | -86.48502 | 15943 ft | 361 kts | 294° |
| 2026-05-05 17:33 | 34.18516 | -86.51133 | 15731 ft | 352 kts | 302° |
| 2026-05-05 17:34 | 34.20265 | -86.53194 | 15294 ft | 356 kts | 322° |
| 2026-05-05 17:34 | 34.22561 | -86.54374 | 14798 ft | 365 kts | 343° |
| 2026-05-05 17:34 | 34.25115 | -86.54609 | 14247 ft | 371 kts | 355° |
| 2026-05-05 17:34 | 34.27706 | -86.54603 | 13676 ft | 372 kts | 356° |
| 2026-05-05 17:35 | 34.30292 | -86.54594 | 13111 ft | 370 kts | 355° |
| 2026-05-05 17:35 | 34.32861 | -86.54588 | 12579 ft | 367 kts | 355° |
| 2026-05-05 17:35 | 34.35402 | -86.54584 | 12061 ft | 364 kts | 355° |
| 2026-05-05 17:35 | 34.37894 | -86.54581 | 11546 ft | 361 kts | 355° |
| 2026-05-05 17:36 | 34.40398 | -86.54582 | 11042 ft | 359 kts | 355° |
| 2026-05-05 17:36 | 34.42881 | -86.54583 | 10553 ft | 356 kts | 355° |
| 2026-05-05 17:36 | 34.45346 | -86.54580 | 10213 ft | 349 kts | 355° |
| 2026-05-05 17:36 | 34.47724 | -86.54570 | 10084 ft | 335 kts | 355° |
| 2026-05-05 17:37 | 34.50009 | -86.54553 | 9955 ft | 322 kts | 355° |
| 2026-05-05 17:37 | 34.52208 | -86.54530 | 9829 ft | 310 kts | 355° |
| 2026-05-05 17:37 | 34.54330 | -86.54506 | 9623 ft | 302 kts | 355° |
| 2026-05-05 17:37 | 34.56419 | -86.54480 | 9280 ft | 299 kts | 356° |
| 2026-05-05 17:38 | 34.58496 | -86.54465 | 8894 ft | 298 kts | 355° |
| 2026-05-05 17:38 | 34.60571 | -86.54453 | 8507 ft | 298 kts | 356° |
| 2026-05-05 17:38 | 34.62638 | -86.54523 | 8127 ft | 296 kts | 352° |
| 2026-05-05 17:38 | 34.64690 | -86.54691 | 7714 ft | 296 kts | 352° |
| 2026-05-05 17:39 | 34.66745 | -86.54869 | 7329 ft | 295 kts | 352° |
| 2026-05-05 17:39 | 34.68792 | -86.55047 | 6921 ft | 295 kts | 352° |
| 2026-05-05 17:39 | 34.70811 | -86.55222 | 6528 ft | 295 kts | 353° |
| 2026-05-05 17:39 | 34.72865 | -86.55402 | 6092 ft | 296 kts | 353° |
| 2026-05-05 17:40 | 34.74892 | -86.55722 | 5750 ft | 290 kts | 339° |
| 2026-05-05 17:40 | 34.76598 | -86.56917 | 5393 ft | 279 kts | 311° |
| 2026-05-05 17:40 | 34.77622 | -86.58840 | 4979 ft | 268 kts | 284° |
| 2026-05-05 17:40 | 34.78054 | -86.61025 | 4553 ft | 265 kts | 276° |
| 2026-05-05 17:41 | 34.78290 | -86.63204 | 4326 ft | 253 kts | 268° |
| 2026-05-05 17:41 | 34.78333 | -86.65300 | 4138 ft | 242 kts | 266° |
| 2026-05-05 17:41 | 34.78361 | -86.67300 | 4005 ft | 229 kts | 266° |
| 2026-05-05 17:41 | 34.78384 | -86.69178 | 3879 ft | 216 kts | 266° |
| 2026-05-05 17:42 | 34.78396 | -86.70946 | 3766 ft | 203 kts | 265° |
| 2026-05-05 17:42 | 34.78210 | -86.72565 | 3659 ft | 184 kts | 249° |
| 2026-05-05 17:42 | 34.77828 | -86.73988 | 3515 ft | 169 kts | 241° |
| 2026-05-05 17:42 | 34.77210 | -86.75114 | 3394 ft | 154 kts | 223° |
| 2026-05-05 17:43 | 34.76437 | -86.75845 | 3259 ft | 134 kts | 206° |
| 2026-05-05 17:43 | 34.75593 | -86.76247 | 3001 ft | 129 kts | 192° |
| 2026-05-05 17:43 | 34.74693 | -86.76359 | 2739 ft | 134 kts | 182° |
| 2026-05-05 17:43 | 34.73723 | -86.76378 | 2315 ft | 140 kts | 182° |
| 2026-05-05 17:44 | 34.72782 | -86.76396 | 2115 ft | 131 kts | 181° |
| 2026-05-05 17:44 | 34.71869 | -86.76415 | 1920 ft | 131 kts | 182° |
| 2026-05-05 17:44 | 34.70958 | -86.76433 | 1744 ft | 131 kts | 181° |
| 2026-05-05 17:44 | 34.70071 | -86.76451 | 1632 ft | 128 kts | 181° |
| 2026-05-05 17:45 | 34.69166 | -86.76473 | 1444 ft | 131 kts | 179° |
| 2026-05-05 17:45 | 34.68262 | -86.76496 | 1221 ft | 129 kts | 182° |
| 2026-05-05 17:45 | 34.67355 | -86.76499 | 1019 ft | 130 kts | 182° |
| 2026-05-05 17:45 | 34.66453 | -86.76519 | 848 ft | 131 kts | 181° |
| 2026-05-05 17:46 | 34.65538 | -86.76540 | 701 ft | 132 kts | 182° |
| 2026-05-05 17:46 | 34.64717 | -86.76563 | 647 ft | 103 kts | 180° |
| 2026-05-05 17:46 | 34.64170 | -86.76572 | 632 ft | 53 kts | 181° |
| 2026-05-05 17:46 | 34.63856 | -86.76579 | 632 ft | 41 kts | 180° |
| 2026-05-05 17:47 | 34.63715 | -86.76597 | 635 ft | 9 kts | 238° |
| 2026-05-05 17:47 | 34.63700 | -86.76675 | 634 ft | 10 kts | 277° |
| 2026-05-05 17:47 | 34.63745 | -86.76728 | 638 ft | 10 kts | 355° |
| 2026-05-05 17:47 | 34.63816 | -86.76727 | 634 ft | 11 kts | 0° |
| 2026-05-05 17:48 | 34.63896 | -86.76725 | 632 ft | 13 kts | 2° |
| 2026-05-05 17:48 | 34.64005 | -86.76722 | 633 ft | 18 kts | 359° |
| 2026-05-05 17:48 | 34.64136 | -86.76718 | 632 ft | 19 kts | 1° |
| 2026-05-05 17:48 | 34.64274 | -86.76716 | 635 ft | 21 kts | 0° |
| 2026-05-05 17:49 | 34.64422 | -86.76714 | 636 ft | 15 kts | 1° |
| 2026-05-05 17:49 | 34.64491 | -86.76786 | 638 ft | 16 kts | 278° |
| 2026-05-05 17:49 | 34.64492 | -86.76936 | 636 ft | 20 kts | 271° |
| 2026-05-05 17:49 | 34.64495 | -86.77122 | 633 ft | 24 kts | 270° |
| 2026-05-05 17:50 | 34.64497 | -86.77315 | 631 ft | 5 kts | 270° |
| 2026-05-05 17:50 | 34.64497 | -86.77346 | 631 ft | 1 kts | 270° |
| 2026-05-05 17:50 | 34.64497 | -86.77356 | 631 ft | 3 kts | 270° |
| 2026-05-05 17:50 | 34.64497 | -86.77392 | 631 ft | 6 kts | 270° |
| 2026-05-05 17:51 | 34.64499 | -86.77458 | 631 ft | 9 kts | 272° |
| 2026-05-05 17:51 | 34.64500 | -86.77531 | 631 ft | 8 kts | 270° |
| 2026-05-05 17:51 | 34.64501 | -86.77594 | 636 ft | 7 kts | 274° |
| 2026-05-05 17:51 | 34.64502 | -86.77657 | 630 ft | 7 kts | 271° |
| 2026-05-05 17:52 | 34.64503 | -86.77677 | 634 ft | 2 kts | 280° |
| 2026-05-05 17:52 | 34.64509 | -86.77682 | 633 ft | 1 kts | 323° |
| 2026-05-05 17:52 | 34.64518 | -86.77682 | 638 ft | 2 kts | 1° |
| 2026-05-05 17:52 | 34.64526 | -86.77672 | 630 ft | 2 kts | 56° |
| 2026-05-05 17:53 | 34.64528 | -86.77663 | 630 ft | 0 kts | 74° |
| 2026-05-05 17:53 | 34.64529 | -86.77657 | 633 ft | 3 kts | 73° |
| 2026-05-05 17:53 | 34.64529 | -86.77605 | 635 ft | 9 kts | 98° |
| 2026-05-05 17:53 | 34.64560 | -86.77544 | 633 ft | 8 kts | 1° |
| 2026-05-05 17:54 | 34.64569 | -86.77544 | 634 ft | 0 kts | 0° |